sensor_id;sensor_type;location;lat;lon;timestamp;pressure;altitude;pressure_sealevel;temperature;humidity
66021;BME280;52789;59.980;30.346;2023-04-09T00:01:05;102589.38;;;2.08;71.17
66021;BME280;52789;59.980;30.346;2023-04-09T00:03:31;102582.47;;;2.05;71.26
66021;BME280;52789;59.980;30.346;2023-04-09T00:05:56;102587.84;;;2.02;72.24
66021;BME280;52789;59.980;30.346;2023-04-09T00:08:22;102576.53;;;2.00;71.58
66021;BME280;52789;59.980;30.346;2023-04-09T00:10:48;102578.25;;;2.01;71.74
66021;BME280;52789;59.980;30.346;2023-04-09T00:13:13;102576.66;;;1.97;72.29
66021;BME280;52789;59.980;30.346;2023-04-09T00:15:39;102573.31;;;1.94;72.47
66021;BME280;52789;59.980;30.346;2023-04-09T00:18:04;102577.66;;;1.95;71.92
66021;BME280;52789;59.980;30.346;2023-04-09T00:20:35;102581.06;;;1.97;71.33
66021;BME280;52789;59.980;30.346;2023-04-09T00:23:01;102582.03;;;1.94;71.92
66021;BME280;52789;59.980;30.346;2023-04-09T00:25:26;102582.91;;;1.95;72.28
66021;BME280;52789;59.980;30.346;2023-04-09T00:27:53;102581.13;;;1.95;71.91
66021;BME280;52789;59.980;30.346;2023-04-09T00:30:18;102581.06;;;1.97;71.16
66021;BME280;52789;59.980;30.346;2023-04-09T00:32:43;102588.09;;;1.96;71.41
66021;BME280;52789;59.980;30.346;2023-04-09T00:35:09;102580.28;;;1.95;71.04
66021;BME280;52789;59.980;30.346;2023-04-09T00:37:35;102583.03;;;1.92;71.61
66021;BME280;52789;59.980;30.346;2023-04-09T00:40:00;102579.47;;;1.93;71.01
66021;BME280;52789;59.980;30.346;2023-04-09T00:42:25;102589.00;;;1.95;71.03
66021;BME280;52789;59.980;30.346;2023-04-09T00:44:51;102575.81;;;1.97;70.73
66021;BME280;52789;59.980;30.346;2023-04-09T00:47:16;102584.53;;;1.97;70.65
66021;BME280;52789;59.980;30.346;2023-04-09T00:49:42;102578.38;;;1.98;70.65
66021;BME280;52789;59.980;30.346;2023-04-09T00:52:08;102577.53;;;1.98;70.37
66021;BME280;52789;59.980;30.346;2023-04-09T00:54:34;102584.41;;;2.00;70.31
66021;BME280;52789;59.980;30.346;2023-04-09T00:56:59;102581.00;;;1.98;70.00
66021;BME280;52789;59.980;30.346;2023-04-09T00:59:25;102581.78;;;2.00;69.82
66021;BME280;52789;59.980;30.346;2023-04-09T01:01:50;102585.19;;;2.04;69.63
66021;BME280;52789;59.980;30.346;2023-04-09T01:04:16;102585.19;;;2.04;70.36
66021;BME280;52789;59.980;30.346;2023-04-09T01:06:44;102582.56;;;2.02;69.85
66021;BME280;52789;59.980;30.346;2023-04-09T01:09:23;102580.78;;;2.04;69.85
66021;BME280;52789;59.980;30.346;2023-04-09T01:12:01;102579.84;;;2.05;69.49
66021;BME280;52789;59.980;30.346;2023-04-09T01:17:04;102580.78;;;2.04;69.28
66021;BME280;52789;59.980;30.346;2023-04-09T01:22:01;102575.88;;;1.95;69.71
66021;BME280;52789;59.980;30.346;2023-04-09T01:29:23;102580.59;;;1.87;70.32
66021;BME280;52789;59.980;30.346;2023-04-09T01:31:49;102583.34;;;1.84;70.45
66021;BME280;52789;59.980;30.346;2023-04-09T01:34:15;102582.56;;;1.82;70.26
66021;BME280;52789;59.980;30.346;2023-04-09T01:36:44;102580.06;;;1.79;70.74
66021;BME280;52789;59.980;30.346;2023-04-09T01:39:10;102585.53;;;1.73;72.21
66021;BME280;52789;59.980;30.346;2023-04-09T01:41:36;102590.84;;;1.71;71.32
66021;BME280;52789;59.980;30.346;2023-04-09T01:44:02;102583.09;;;1.68;71.23
66021;BME280;52789;59.980;30.346;2023-04-09T01:46:29;102584.75;;;1.71;70.92
66021;BME280;52789;59.980;30.346;2023-04-09T01:48:55;102588.22;;;1.71;71.11
66021;BME280;52789;59.980;30.346;2023-04-09T01:51:21;102582.97;;;1.71;70.95
66021;BME280;52789;59.980;30.346;2023-04-09T01:53:47;102591.81;;;1.69;70.95
66021;BME280;52789;59.980;30.346;2023-04-09T01:56:12;102591.16;;;1.64;71.02
66021;BME280;52789;59.980;30.346;2023-04-09T01:58:37;102586.81;;;1.63;71.34
66021;BME280;52789;59.980;30.346;2023-04-09T02:01:09;102589.63;;;1.58;71.77
66021;BME280;52789;59.980;30.346;2023-04-09T02:03:43;102588.78;;;1.58;71.39
66021;BME280;52789;59.980;30.346;2023-04-09T02:08:35;102583.84;;;1.50;71.95
66021;BME280;52789;59.980;30.346;2023-04-09T02:11:02;102591.91;;;1.45;72.55
66021;BME280;52789;59.980;30.346;2023-04-09T02:13:28;102585.03;;;1.41;72.10
66021;BME280;52789;59.980;30.346;2023-04-09T02:15:54;102587.66;;;1.41;72.27
66021;BME280;52789;59.980;30.346;2023-04-09T02:18:24;102590.28;;;1.41;72.12
66021;BME280;52789;59.980;30.346;2023-04-09T02:20:49;102586.00;;;1.39;72.07
66021;BME280;52789;59.980;30.346;2023-04-09T02:23:16;102589.59;;;1.36;72.45
66021;BME280;52789;59.980;30.346;2023-04-09T02:25:41;102592.34;;;1.33;72.50
66021;BME280;52789;59.980;30.346;2023-04-09T02:28:07;102589.78;;;1.32;72.88
66021;BME280;52789;59.980;30.346;2023-04-09T02:30:32;102590.75;;;1.29;73.00
66021;BME280;52789;59.980;30.346;2023-04-09T02:32:57;102588.13;;;1.29;72.59
66021;BME280;52789;59.980;30.346;2023-04-09T02:35:23;102589.06;;;1.28;73.03
66021;BME280;52789;59.980;30.346;2023-04-09T02:37:48;102583.00;;;1.26;73.06
66021;BME280;52789;59.980;30.346;2023-04-09T02:40:14;102582.09;;;1.27;73.10
66021;BME280;52789;59.980;30.346;2023-04-09T02:42:39;102588.13;;;1.29;72.80
66021;BME280;52789;59.980;30.346;2023-04-09T02:45:05;102592.47;;;1.30;72.72
66021;BME280;52789;59.980;30.346;2023-04-09T02:47:30;102587.22;;;1.30;72.63
66021;BME280;52789;59.980;30.346;2023-04-09T02:49:55;102591.50;;;1.33;72.83
66021;BME280;52789;59.980;30.346;2023-04-09T02:52:21;102592.22;;;1.36;72.57
66021;BME280;52789;59.980;30.346;2023-04-09T02:54:48;102597.47;;;1.36;72.11
66021;BME280;52789;59.980;30.346;2023-04-09T02:57:13;102586.13;;;1.36;72.14
66021;BME280;52789;59.980;30.346;2023-04-09T02:59:39;102593.94;;;1.37;71.77
66021;BME280;52789;59.980;30.346;2023-04-09T03:02:05;102590.53;;;1.35;72.04
66021;BME280;52789;59.980;30.346;2023-04-09T03:04:30;102595.88;;;1.32;72.13
66021;BME280;52789;59.980;30.346;2023-04-09T03:06:55;102588.94;;;1.31;71.94
66021;BME280;52789;59.980;30.346;2023-04-09T03:09:21;102588.00;;;1.32;72.44
66021;BME280;52789;59.980;30.346;2023-04-09T03:11:46;102593.31;;;1.31;72.58
66021;BME280;52789;59.980;30.346;2023-04-09T03:14:11;102601.25;;;1.29;72.34
66021;BME280;52789;59.980;30.346;2023-04-09T03:16:36;102595.94;;;1.31;72.12
66021;BME280;52789;59.980;30.346;2023-04-09T03:19:02;102602.97;;;1.30;72.33
66021;BME280;52789;59.980;30.346;2023-04-09T03:21:27;102600.28;;;1.32;72.37
66021;BME280;52789;59.980;30.346;2023-04-09T03:23:53;102598.44;;;1.34;72.36
66021;BME280;52789;59.980;30.346;2023-04-09T03:26:18;102595.72;;;1.37;71.74
66021;BME280;52789;59.980;30.346;2023-04-09T03:28:44;102599.81;;;1.44;71.23
66021;BME280;52789;59.980;30.346;2023-04-09T03:31:09;102597.03;;;1.48;70.71
66021;BME280;52789;59.980;30.346;2023-04-09T03:33:34;102603.88;;;1.52;70.29
66021;BME280;52789;59.980;30.346;2023-04-09T03:36:00;102606.44;;;1.54;70.57
66021;BME280;52789;59.980;30.346;2023-04-09T03:38:25;102598.63;;;1.52;70.54
66021;BME280;52789;59.980;30.346;2023-04-09T03:40:50;102591.53;;;1.54;70.64
66021;BME280;52789;59.980;30.346;2023-04-09T03:43:16;102598.44;;;1.57;70.26
66021;BME280;52789;59.980;30.346;2023-04-09T03:45:41;102599.09;;;1.62;70.02
66021;BME280;52789;59.980;30.346;2023-04-09T03:48:06;102602.34;;;1.69;69.17
66021;BME280;52789;59.980;30.346;2023-04-09T03:50:37;102601.28;;;1.73;69.25
66021;BME280;52789;59.980;30.346;2023-04-09T03:53:02;102601.19;;;1.76;69.37
66021;BME280;52789;59.980;30.346;2023-04-09T03:55:28;102597.78;;;1.74;69.29
66021;BME280;52789;59.980;30.346;2023-04-09T03:57:53;102604.75;;;1.75;69.49
66021;BME280;52789;59.980;30.346;2023-04-09T04:00:18;102605.53;;;1.77;69.59
66021;BME280;52789;59.980;30.346;2023-04-09T04:02:44;102609.81;;;1.79;69.63
66021;BME280;52789;59.980;30.346;2023-04-09T04:05:09;102605.41;;;1.80;69.97
66021;BME280;52789;59.980;30.346;2023-04-09T04:07:35;102610.47;;;1.84;69.62
66021;BME280;52789;59.980;30.346;2023-04-09T04:10:02;102612.97;;;1.88;69.32
66021;BME280;52789;59.980;30.346;2023-04-09T04:12:29;102601.56;;;1.89;69.30
66021;BME280;52789;59.980;30.346;2023-04-09T04:14:55;102611.94;;;1.92;69.24
66021;BME280;52789;59.980;30.346;2023-04-09T04:17:20;102615.34;;;1.94;69.33
66021;BME280;52789;59.980;30.346;2023-04-09T04:19:45;102611.75;;;1.96;68.74
66021;BME280;52789;59.980;30.346;2023-04-09T04:22:11;102611.63;;;1.99;68.69
66021;BME280;52789;59.980;30.346;2023-04-09T04:24:36;102612.41;;;2.01;68.60
66021;BME280;52789;59.980;30.346;2023-04-09T04:27:01;102610.47;;;2.06;68.34
66021;BME280;52789;59.980;30.346;2023-04-09T04:29:26;102612.13;;;2.09;68.08
66021;BME280;52789;59.980;30.346;2023-04-09T04:31:52;102608.50;;;2.11;67.77
66021;BME280;52789;59.980;30.346;2023-04-09T04:34:17;102613.88;;;2.08;67.70
66021;BME280;52789;59.980;30.346;2023-04-09T04:36:43;102617.31;;;2.10;67.79
66021;BME280;52789;59.980;30.346;2023-04-09T04:39:08;102617.19;;;2.13;67.99
66021;BME280;52789;59.980;30.346;2023-04-09T04:41:33;102616.13;;;2.17;67.85
66021;BME280;52789;59.980;30.346;2023-04-09T04:43:59;102616.78;;;2.23;67.72
66021;BME280;52789;59.980;30.346;2023-04-09T04:46:24;102622.78;;;2.26;67.79
66021;BME280;52789;59.980;30.346;2023-04-09T04:48:49;102614.75;;;2.29;68.01
66021;BME280;52789;59.980;30.346;2023-04-09T04:51:15;102609.44;;;2.31;67.74
66021;BME280;52789;59.980;30.346;2023-04-09T04:53:40;102598.69;;;2.37;66.81
66021;BME280;52789;59.980;30.346;2023-04-09T04:56:06;102603.66;;;2.43;66.92
66021;BME280;52789;59.980;30.346;2023-04-09T04:58:31;102606.75;;;2.53;66.87
66021;BME280;52789;59.980;30.346;2023-04-09T05:00:56;102609.97;;;2.59;65.94
66021;BME280;52789;59.980;30.346;2023-04-09T05:03:22;102617.47;;;2.68;65.05
66021;BME280;52789;59.980;30.346;2023-04-09T05:05:47;102616.28;;;2.75;64.21
66021;BME280;52789;59.980;30.346;2023-04-09T05:08:12;102615.16;;;2.81;64.34
66021;BME280;52789;59.980;30.346;2023-04-09T05:10:41;102611.41;;;2.87;64.12
66021;BME280;52789;59.980;30.346;2023-04-09T05:13:10;102609.31;;;2.95;63.62
66021;BME280;52789;59.980;30.346;2023-04-09T05:15:37;102616.00;;;3.02;63.86
66021;BME280;52789;59.980;30.346;2023-04-09T05:18:02;102616.50;;;3.10;63.49
66021;BME280;52789;59.980;30.346;2023-04-09T05:20:27;102615.50;;;3.13;62.67
66021;BME280;52789;59.980;30.346;2023-04-09T05:22:53;102620.44;;;3.20;63.11
66021;BME280;52789;59.980;30.346;2023-04-09T05:25:20;102621.78;;;3.29;62.92
66021;BME280;52789;59.980;30.346;2023-04-09T05:27:45;102631.19;;;3.34;61.77
66021;BME280;52789;59.980;30.346;2023-04-09T05:30:11;102622.34;;;3.35;60.18
66021;BME280;52789;59.980;30.346;2023-04-09T05:32:36;102643.00;;;3.45;60.43
66021;BME280;52789;59.980;30.346;2023-04-09T05:35:02;102633.91;;;3.52;59.52
66021;BME280;52789;59.980;30.346;2023-04-09T05:37:28;102629.06;;;3.61;60.54
66021;BME280;52789;59.980;30.346;2023-04-09T05:39:53;102626.19;;;3.66;59.03
66021;BME280;52789;59.980;30.346;2023-04-09T05:42:19;102632.16;;;3.69;59.04
66021;BME280;52789;59.980;30.346;2023-04-09T05:44:44;102640.59;;;3.78;58.83
66021;BME280;52789;59.980;30.346;2023-04-09T05:47:09;102639.22;;;3.88;59.53
66021;BME280;52789;59.980;30.346;2023-04-09T05:49:35;102634.41;;;3.96;59.07
66021;BME280;52789;59.980;30.346;2023-04-09T05:52:01;102642.69;;;4.07;58.15
66021;BME280;52789;59.980;30.346;2023-04-09T05:54:26;102637.94;;;4.14;56.47
66021;BME280;52789;59.980;30.346;2023-04-09T05:56:51;102637.66;;;4.20;56.68
66021;BME280;52789;59.980;30.346;2023-04-09T05:59:17;102647.03;;;4.25;55.88
66021;BME280;52789;59.980;30.346;2023-04-09T06:01:43;102632.69;;;4.31;56.02
66021;BME280;52789;59.980;30.346;2023-04-09T06:04:09;102645.75;;;4.34;55.25
66021;BME280;52789;59.980;30.346;2023-04-09T06:06:36;102640.16;;;4.40;54.71
66021;BME280;52789;59.980;30.346;2023-04-09T06:09:01;102651.25;;;4.47;54.82
66021;BME280;52789;59.980;30.346;2023-04-09T06:11:27;102648.13;;;4.56;54.99
66021;BME280;52789;59.980;30.346;2023-04-09T06:13:53;102648.06;;;4.57;53.70
66021;BME280;52789;59.980;30.346;2023-04-09T06:16:18;102646.03;;;4.62;54.50
66021;BME280;52789;59.980;30.346;2023-04-09T06:18:43;102651.78;;;4.71;53.52
66021;BME280;52789;59.980;30.346;2023-04-09T06:21:10;102656.59;;;4.80;54.51
66021;BME280;52789;59.980;30.346;2023-04-09T06:23:37;102664.03;;;4.89;53.78
66021;BME280;52789;59.980;30.346;2023-04-09T06:26:03;102665.44;;;4.96;53.95
66021;BME280;52789;59.980;30.346;2023-04-09T06:28:28;102665.09;;;5.02;53.64
66021;BME280;52789;59.980;30.346;2023-04-09T06:30:54;102668.34;;;5.07;52.70
66021;BME280;52789;59.980;30.346;2023-04-09T06:33:19;102668.97;;;5.12;53.64
66021;BME280;52789;59.980;30.346;2023-04-09T06:35:45;102665.13;;;5.18;53.40
66021;BME280;52789;59.980;30.346;2023-04-09T06:38:10;102670.97;;;5.24;53.21
66021;BME280;52789;59.980;30.346;2023-04-09T06:40:36;102678.66;;;5.29;52.66
66021;BME280;52789;59.980;30.346;2023-04-09T06:43:02;102670.63;;;5.31;52.02
66021;BME280;52789;59.980;30.346;2023-04-09T06:45:28;102680.88;;;5.37;51.87
66021;BME280;52789;59.980;30.346;2023-04-09T06:47:53;102673.53;;;5.42;51.82
66021;BME280;52789;59.980;30.346;2023-04-09T06:50:19;102679.44;;;5.47;52.53
66021;BME280;52789;59.980;30.346;2023-04-09T06:52:44;102676.66;;;5.50;52.54
66021;BME280;52789;59.980;30.346;2023-04-09T06:55:10;102686.72;;;5.59;51.91
66021;BME280;52789;59.980;30.346;2023-04-09T06:57:35;102689.78;;;5.67;52.17
66021;BME280;52789;59.980;30.346;2023-04-09T07:00:02;102689.44;;;5.73;52.07
66021;BME280;52789;59.980;30.346;2023-04-09T07:02:28;102700.56;;;5.80;50.37
66021;BME280;52789;59.980;30.346;2023-04-09T07:04:53;102698.41;;;5.86;50.02
66021;BME280;52789;59.980;30.346;2023-04-09T07:07:19;102696.16;;;5.96;50.64
66021;BME280;52789;59.980;30.346;2023-04-09T07:09:45;102699.19;;;6.04;50.06
66021;BME280;52789;59.980;30.346;2023-04-09T07:12:10;102702.28;;;6.12;50.10
66021;BME280;52789;59.980;30.346;2023-04-09T07:14:35;102703.66;;;6.19;50.09
66021;BME280;52789;59.980;30.346;2023-04-09T07:17:01;102698.84;;;6.26;49.15
66021;BME280;52789;59.980;30.346;2023-04-09T07:19:26;102702.59;;;6.38;49.94
66021;BME280;52789;59.980;30.346;2023-04-09T07:21:51;102702.91;;;6.47;50.50
66021;BME280;52789;59.980;30.346;2023-04-09T07:24:17;102702.56;;;6.53;49.38
66021;BME280;52789;59.980;30.346;2023-04-09T07:26:42;102701.25;;;6.61;49.73
66021;BME280;52789;59.980;30.346;2023-04-09T07:29:08;102697.31;;;6.68;48.53
66021;BME280;52789;59.980;30.346;2023-04-09T07:31:33;102699.25;;;6.80;48.95
66021;BME280;52789;59.980;30.346;2023-04-09T07:33:58;102689.78;;;6.90;48.09
66021;BME280;52789;59.980;30.346;2023-04-09T07:36:24;102695.50;;;6.98;47.61
66021;BME280;52789;59.980;30.346;2023-04-09T07:38:50;102698.44;;;7.08;46.88
66021;BME280;52789;59.980;30.346;2023-04-09T07:41:16;102689.16;;;7.15;45.44
66021;BME280;52789;59.980;30.346;2023-04-09T07:43:41;102701.94;;;7.23;45.42
66021;BME280;52789;59.980;30.346;2023-04-09T07:46:07;102693.53;;;7.30;45.23
66021;BME280;52789;59.980;30.346;2023-04-09T07:48:32;102700.16;;;7.37;44.31
66021;BME280;52789;59.980;30.346;2023-04-09T07:50:57;102695.44;;;7.42;45.30
66021;BME280;52789;59.980;30.346;2023-04-09T07:53:23;102700.25;;;7.50;45.02
66021;BME280;52789;59.980;30.346;2023-04-09T07:55:49;102696.28;;;7.57;45.89
66021;BME280;52789;59.980;30.346;2023-04-09T07:58:15;102703.09;;;7.61;45.02
66021;BME280;52789;59.980;30.346;2023-04-09T08:00:40;102698.06;;;7.71;44.08
66021;BME280;52789;59.980;30.346;2023-04-09T08:03:06;102701.00;;;7.81;43.58
66021;BME280;52789;59.980;30.346;2023-04-09T08:05:31;102706.84;;;7.86;42.53
66021;BME280;52789;59.980;30.346;2023-04-09T08:07:56;102693.94;;;7.94;43.48
66021;BME280;52789;59.980;30.346;2023-04-09T08:10:22;102699.41;;;8.05;42.84
66021;BME280;52789;59.980;30.346;2023-04-09T08:12:49;102697.69;;;8.18;43.59
66021;BME280;52789;59.980;30.346;2023-04-09T08:15:15;102703.44;;;8.25;43.60
66021;BME280;52789;59.980;30.346;2023-04-09T08:17:40;102699.72;;;8.27;42.11
66021;BME280;52789;59.980;30.346;2023-04-09T08:20:06;102700.66;;;8.26;41.42
66021;BME280;52789;59.980;30.346;2023-04-09T08:22:32;102701.31;;;8.30;42.35
66021;BME280;52789;59.980;30.346;2023-04-09T08:24:58;102706.94;;;8.40;42.24
66021;BME280;52789;59.980;30.346;2023-04-09T08:27:27;102705.16;;;8.53;40.69
66021;BME280;52789;59.980;30.346;2023-04-09T08:29:53;102710.34;;;8.54;40.74
66021;BME280;52789;59.980;30.346;2023-04-09T08:32:18;102698.88;;;8.54;41.24
66021;BME280;52789;59.980;30.346;2023-04-09T08:34:44;102701.22;;;8.58;40.95
66021;BME280;52789;59.980;30.346;2023-04-09T08:37:09;102699.22;;;8.62;40.54
66021;BME280;52789;59.980;30.346;2023-04-09T08:39:35;102702.97;;;8.72;41.74
66021;BME280;52789;59.980;30.346;2023-04-09T08:42:00;102695.34;;;8.80;40.20
66021;BME280;52789;59.980;30.346;2023-04-09T08:44:27;102707.44;;;8.84;40.19
66021;BME280;52789;59.980;30.346;2023-04-09T08:46:52;102694.28;;;8.83;39.48
66021;BME280;52789;59.980;30.346;2023-04-09T08:49:18;102700.88;;;8.90;40.42
66021;BME280;52789;59.980;30.346;2023-04-09T08:51:47;102701.50;;;8.93;38.54
66021;BME280;52789;59.980;30.346;2023-04-09T08:54:16;102702.81;;;9.00;39.24
66021;BME280;52789;59.980;30.346;2023-04-09T08:56:44;102705.78;;;9.09;39.63
66021;BME280;52789;59.980;30.346;2023-04-09T08:59:09;102701.63;;;9.17;40.64
66021;BME280;52789;59.980;30.346;2023-04-09T09:01:35;102696.00;;;9.22;39.09
66021;BME280;52789;59.980;30.346;2023-04-09T09:04:02;102700.69;;;9.31;38.65
66021;BME280;52789;59.980;30.346;2023-04-09T09:06:37;102696.63;;;9.38;37.98
66021;BME280;52789;59.980;30.346;2023-04-09T09:09:09;102695.56;;;9.41;37.38
66021;BME280;52789;59.980;30.346;2023-04-09T09:11:36;102701.50;;;9.44;38.26
66021;BME280;52789;59.980;30.346;2023-04-09T09:14:03;102703.84;;;9.49;38.00
66021;BME280;52789;59.980;30.346;2023-04-09T09:16:29;102706.28;;;9.52;38.06
66021;BME280;52789;59.980;30.346;2023-04-09T09:18:57;102700.44;;;9.59;37.22
66021;BME280;52789;59.980;30.346;2023-04-09T09:21:24;102703.19;;;9.71;37.74
66021;BME280;52789;59.980;30.346;2023-04-09T09:23:51;102702.72;;;9.77;36.46
66021;BME280;52789;59.980;30.346;2023-04-09T09:26:17;102708.78;;;9.79;36.47
66021;BME280;52789;59.980;30.346;2023-04-09T09:28:45;102703.25;;;9.82;36.24
66021;BME280;52789;59.980;30.346;2023-04-09T09:31:11;102708.88;;;9.90;37.62
66021;BME280;52789;59.980;30.346;2023-04-09T09:33:37;102707.06;;;9.90;36.49
66021;BME280;52789;59.980;30.346;2023-04-09T09:36:03;102709.50;;;9.93;36.28
66021;BME280;52789;59.980;30.346;2023-04-09T09:38:31;102708.56;;;9.94;35.26
66021;BME280;52789;59.980;30.346;2023-04-09T09:40:57;102710.88;;;9.99;35.53
66021;BME280;52789;59.980;30.346;2023-04-09T09:43:32;102712.81;;;9.97;35.11
66021;BME280;52789;59.980;30.346;2023-04-09T09:46:04;102711.84;;;9.98;35.90
66021;BME280;52789;59.980;30.346;2023-04-09T09:48:29;102709.91;;;10.00;35.44
66021;BME280;52789;59.980;30.346;2023-04-09T09:50:54;102705.56;;;9.99;36.21
66021;BME280;52789;59.980;30.346;2023-04-09T09:53:21;102711.72;;;10.00;36.51
66021;BME280;52789;59.980;30.346;2023-04-09T09:55:47;102718.00;;;9.99;35.78
66021;BME280;52789;59.980;30.346;2023-04-09T09:58:21;102704.38;;;10.03;36.11
66021;BME280;52789;59.980;30.346;2023-04-09T10:00:48;102708.81;;;10.15;36.25
66021;BME280;52789;59.980;30.346;2023-04-09T10:03:24;102699.44;;;10.22;35.54
66021;BME280;52789;59.980;30.346;2023-04-09T10:05:49;102700.78;;;10.28;36.18
66021;BME280;52789;59.980;30.346;2023-04-09T10:08:15;102702.88;;;10.36;35.64
66021;BME280;52789;59.980;30.346;2023-04-09T10:10:41;102699.81;;;10.29;35.89
66021;BME280;52789;59.980;30.346;2023-04-09T10:13:13;102718.44;;;10.42;34.88
66021;BME280;52789;59.980;30.346;2023-04-09T10:15:40;102707.53;;;10.45;35.66
66021;BME280;52789;59.980;30.346;2023-04-09T10:18:07;102714.34;;;10.49;36.45
66021;BME280;52789;59.980;30.346;2023-04-09T10:20:35;102709.28;;;10.57;36.26
66021;BME280;52789;59.980;30.346;2023-04-09T10:23:04;102711.59;;;10.62;35.36
66021;BME280;52789;59.980;30.346;2023-04-09T10:25:33;102710.63;;;10.63;34.92
66021;BME280;52789;59.980;30.346;2023-04-09T10:27:59;102714.25;;;10.62;35.53
66021;BME280;52789;59.980;30.346;2023-04-09T10:30:34;102718.50;;;10.64;34.89
66021;BME280;52789;59.980;30.346;2023-04-09T10:35:53;102718.63;;;10.63;34.34
66021;BME280;52789;59.980;30.346;2023-04-09T10:41:28;102708.34;;;10.69;34.83
66021;BME280;52789;59.980;30.346;2023-04-09T10:43:56;102718.09;;;10.81;35.86
66021;BME280;52789;59.980;30.346;2023-04-09T10:46:34;102719.31;;;10.89;34.42
66021;BME280;52789;59.980;30.346;2023-04-09T10:51:34;102723.41;;;10.81;34.01
66021;BME280;52789;59.980;30.346;2023-04-09T10:54:00;102713.22;;;10.75;34.49
66021;BME280;52789;59.980;30.346;2023-04-09T10:56:25;102722.19;;;10.74;34.52
66021;BME280;52789;59.980;30.346;2023-04-09T10:58:50;102724.00;;;10.74;34.23
66021;BME280;52789;59.980;30.346;2023-04-09T11:01:22;102727.75;;;10.71;34.38
66021;BME280;52789;59.980;30.346;2023-04-09T11:04:15;102730.06;;;10.76;34.41
66021;BME280;52789;59.980;30.346;2023-04-09T11:06:37;102736.16;;;10.89;34.77
66021;BME280;52789;59.980;30.346;2023-04-09T11:09:04;102731.19;;;10.96;34.57
66021;BME280;52789;59.980;30.346;2023-04-09T11:11:29;102728.22;;;11.00;34.60
66021;BME280;52789;59.980;30.346;2023-04-09T11:14:00;102724.69;;;11.00;34.06
66021;BME280;52789;59.980;30.346;2023-04-09T11:16:27;102724.34;;;11.04;33.94
66021;BME280;52789;59.980;30.346;2023-04-09T11:18:53;102738.28;;;11.08;32.84
66021;BME280;52789;59.980;30.346;2023-04-09T11:21:20;102738.28;;;11.08;33.12
66021;BME280;52789;59.980;30.346;2023-04-09T11:23:54;102730.75;;;11.02;33.30
66021;BME280;52789;59.980;30.346;2023-04-09T11:26:24;102734.84;;;10.95;32.05
66021;BME280;52789;59.980;30.346;2023-04-09T11:28:54;102731.66;;;10.90;32.99
66021;BME280;52789;59.980;30.346;2023-04-09T11:31:27;102731.91;;;10.86;32.29
66021;BME280;52789;59.980;30.346;2023-04-09T11:33:53;102734.34;;;10.90;32.96
66021;BME280;52789;59.980;30.346;2023-04-09T11:36:19;102729.84;;;10.90;32.07
66021;BME280;52789;59.980;30.346;2023-04-09T11:38:46;102733.13;;;10.94;33.18
66021;BME280;52789;59.980;30.346;2023-04-09T11:41:12;102734.59;;;10.98;32.75
66021;BME280;52789;59.980;30.346;2023-04-09T11:43:38;102735.06;;;10.92;32.58
66021;BME280;52789;59.980;30.346;2023-04-09T11:46:09;102738.69;;;10.91;32.65
66021;BME280;52789;59.980;30.346;2023-04-09T11:48:35;102736.31;;;10.99;33.01
66021;BME280;52789;59.980;30.346;2023-04-09T11:51:01;102738.41;;;11.06;32.96
66021;BME280;52789;59.980;30.346;2023-04-09T11:53:29;102742.63;;;11.09;32.39
66021;BME280;52789;59.980;30.346;2023-04-09T11:55:54;102742.28;;;11.02;31.90
66021;BME280;52789;59.980;30.346;2023-04-09T11:58:26;102740.22;;;11.06;31.72
66021;BME280;52789;59.980;30.346;2023-04-09T12:00:56;102735.44;;;10.98;31.68
66021;BME280;52789;59.980;30.346;2023-04-09T12:03:29;102739.19;;;10.96;31.86
66021;BME280;52789;59.980;30.346;2023-04-09T12:05:55;102737.25;;;10.98;32.30
66021;BME280;52789;59.980;30.346;2023-04-09T12:08:23;102746.03;;;11.00;32.38
66021;BME280;52789;59.980;30.346;2023-04-09T12:10:49;102733.41;;;11.02;32.45
66021;BME280;52789;59.980;30.346;2023-04-09T12:13:15;102740.91;;;10.97;31.78
66021;BME280;52789;59.980;30.346;2023-04-09T12:15:41;102733.38;;;10.91;31.94
66021;BME280;52789;59.980;30.346;2023-04-09T12:18:08;102741.25;;;10.92;31.99
66021;BME280;52789;59.980;30.346;2023-04-09T12:20:35;102746.09;;;10.98;31.96
66021;BME280;52789;59.980;30.346;2023-04-09T12:23:01;102750.38;;;11.01;31.37
66021;BME280;52789;59.980;30.346;2023-04-09T12:25:28;102741.13;;;10.94;31.66
66021;BME280;52789;59.980;30.346;2023-04-09T12:27:54;102736.53;;;10.96;31.74
66021;BME280;52789;59.980;30.346;2023-04-09T12:30:19;102735.06;;;10.92;31.68
66021;BME280;52789;59.980;30.346;2023-04-09T12:32:46;102733.88;;;10.96;30.86
66021;BME280;52789;59.980;30.346;2023-04-09T12:35:12;102741.66;;;10.99;31.15
66021;BME280;52789;59.980;30.346;2023-04-09T12:37:37;102734.84;;;10.95;31.41
66021;BME280;52789;59.980;30.346;2023-04-09T12:40:03;102733.00;;;10.95;31.08
66021;BME280;52789;59.980;30.346;2023-04-09T12:42:28;102735.34;;;11.00;31.70
66021;BME280;52789;59.980;30.346;2023-04-09T12:44:54;102736.31;;;10.99;30.68
66021;BME280;52789;59.980;30.346;2023-04-09T12:47:19;102758.25;;;11.02;30.64
66021;BME280;52789;59.980;30.346;2023-04-09T12:49:44;102741.13;;;10.94;30.46
66021;BME280;52789;59.980;30.346;2023-04-09T12:52:11;102751.03;;;10.80;30.42
66021;BME280;52789;59.980;30.346;2023-04-09T12:54:36;102742.81;;;10.83;30.52
66021;BME280;52789;59.980;30.346;2023-04-09T12:57:04;102754.31;;;10.84;30.38
66021;BME280;52789;59.980;30.346;2023-04-09T12:59:29;102735.91;;;10.81;30.43
66021;BME280;52789;59.980;30.346;2023-04-09T13:01:58;102745.47;;;10.83;30.54
66021;BME280;52789;59.980;30.346;2023-04-09T13:04:27;102745.47;;;10.83;30.82